Samir Jafarov

Chief Scout - Gabala
14 Nov 2027
Sunday
Process

Personality

Adaptability (18) Ambition (14) Controversy (15) Loyalty (4) Pressure (15) Professionalism (4) Sportsmanship (10) Temperament (10)

Profile

Coaching Style Democratic
License National A
Determination 5
Man Management 10
Motivating 10
Discipline 6
Job Satisfaction
98%
Fatigue
0%
Role Chief Scout
Wage 22.3K p/w
Contract 14.03.2030

Performance

Behaviour Good
Training Effectiveness
30%
Player Development
35%
Injury Prevention
30%
Tactical Implementation
30%

Currently Monitoring

130
Player Club Status Ability Confidence Watched Last Observed Latest Vote
Kaick FC Dallas Active 97 / 115 40% 2 30.08.2027 -
Jon Esenga IF Elfsborg Active 85 / 110 40% 1 30.08.2027 -
Santiago Murillo Valledupar Active 69 / 76 40% 1 30.08.2027 -
Lucan Louw AS Police Active 95 / 75 40% 2 29.08.2027 -
Fuzy Taylor Medeama Active 70 / 82 40% 1 29.08.2027 -
Pyry Mentu HJK Active 101 / 118 40% 1 29.08.2027 -
Rafael Vargas Cortulua Active 101 / 99 40% 1 28.08.2027 -
Tyson Pearce St. Louis CITY SC Active 84 / 91 40% 1 27.08.2027 -
Diego Cheuquepal Plaza Colonia Active 101 / 103 40% 1 27.08.2027 -
Gideon Manaseh Ikorodu City Active 86 / 88 40% 1 27.08.2027 -
Drew Baiera New York City Active 105 / 106 40% 1 26.08.2027 -
Pablo Alcoba Albion Active 74 / 102 40% 1 26.08.2027 -
Hosea Michael Remo Stars Active 82 / 102 40% 1 26.08.2027 -
Fabián Correa Barranquilla Active 92 / 85 40% 2 24.08.2027 -
Jonny Shore New York City Active 91 / 103 40% 1 24.08.2027 -
Saeed Abdulrahman Al Shabab Active 91 / 112 40% 1 23.08.2027 -
Mads Bomholt Rosenborg Active 120 / 117 40% 1 23.08.2027 -
David Fernande PWD Bamenda Active 69 / 78 40% 1 23.08.2027 -
Mattia Puzone Siracusa Active 97 / 107 40% 1 09.08.2027 -
Pablo Alcoba Albion Lost 91 / 81 40% 1 09.08.2027 -
Teo Rodríguez Pagano San Lorenzo Active 129 / 132 40% 1 08.08.2027 -
Alexis Pereyra Vélez Active 88 / 114 40% 1 08.08.2027 -
Sebastian Mendoza Carabobo Active 75 / 96 40% 1 07.08.2027 -
Keimer Sandoval Deportivo Cali Active 96 / 96 40% 1 07.08.2027 -
Leo Black Virtus Verona Active 92 / 96 40% 1 06.08.2027 -
Axel Cabellos Cesar Vallejo Active 86 / 94 40% 1 06.08.2027 -
Kian Best Eibar Active 105 / 110 40% 1 06.08.2027 -
Matías Gómez Talleres Active 114 / 129 40% 1 02.08.2027 -
Bradley de Jesus Gil Vicente Active 86 / 102 40% 1 02.08.2027 -
Manuel López Defensores Unidos Active 92 / 99 40% 1 31.07.2027 -
Leonardo Bellini Pianese Active 101 / 99 40% 1 31.07.2027 -
Tyshick Mosengo Kenya Police Active 84 / 71 40% 1 31.07.2027 -
Harley Mills Peterborough United Active 102 / 96 40% 1 31.07.2027 -
Facundo Balatti Penarol Active 90 / 121 40% 1 31.07.2027 -
Simone Ianesi Pianese Active 108 / 112 40% 5 25.07.2027 -
Shohruz Norxonov Gor Mahia Active 101 / 93 40% 1 25.07.2027 -
Claudio Salto Almagro Active 111 / 96 40% 1 25.07.2027 -
Mikkel Hope IK Start Active 94 / 121 40% 1 25.07.2027 -
Ibrahim Coulibaly Clermont Foot Active 112 / 117 40% 1 24.07.2027 -
Olalekan Adeleke Remo Stars Active 100 / 92 40% 1 24.07.2027 -
Vasco Santos Oliveirense Active 89 / 96 40% 1 24.07.2027 -
Chinedu Onyinjekwu Bayelsa United Active 105 / 108 40% 2 23.07.2027 -
Rufat Garayev Ravan Active 112 / 112 40% 1 23.07.2027 -
Musa Masika Mathare United Active 74 / 96 40% 1 23.07.2027 -
Léo Baptistão Almería Active 138 / 142 40% 1 21.07.2027 -
Samson Tovide Colchester United Active 107 / 106 40% 4 20.07.2027 -
Callum Paterson Milton Keynes Dons Active 117 / 112 40% 1 20.07.2027 -
Derrick Otanga Kakamega Homeboyz Active 88 / 97 40% 1 20.07.2027 -
Nicolae Milinceanu Doxa Lost 102 / 103 40% 1 17.07.2027 -
Manu Justo Cultural Leonesa Active 106 / 99 40% 1 16.07.2027 -
Boniface Omondi Kakamega Homeboyz Active 90 / 84 40% 1 16.07.2027 -
Nikita Kireev Dinamo Vologda Active 91 / 94 40% 3 15.07.2027 -
Aldair Ramírez Chernomorets Active 102 / 111 40% 1 14.07.2027 -
Merabi Uridia Fakel Active 105 / 106 40% 3 13.07.2027 -
Charlie Brown Accrington Stanley Active 86 / 71 40% 1 13.07.2027 -
Zakaria Mansouri ES Setif Active 104 / 90 40% 2 12.07.2027 -
Michael Okoro Katsina United Active 86 / 90 40% 1 12.07.2027 -
Daniil Konoplev Dinamo Bryansk Active 91 / 97 40% 1 12.07.2027 -
Jacopo Manconi Casertana Active 124 / 103 40% 2 11.07.2027 -
Aaron Drinan Swindon Town Active 113 / 99 40% 2 10.07.2027 -
Igbunu Evwierhurhoma Warri Wolves Active 87 / 79 40% 1 10.07.2027 -
Surkhaikhan Abdullaev KAMAZ Active 103 / 89 40% 1 07.07.2027 -
David Davidyan Rotor Active 96 / 115 40% 1 07.07.2027 -
José Álvarez Arsenal Tula Active 111 / 117 40% 2 06.07.2027 -
Qara Bayramov AZAL Active 113 / 125 40% 1 06.07.2027 -
Sonny Cox Exeter City Active 79 / 91 40% 1 06.07.2027 -
Ilja Safronov Rotor Active 112 / 116 40% 2 03.07.2027 -
Mohammad Javad Mohammadi Zob Ahan Active 104 / 99 40% 2 02.07.2027 -
Evgeny Voronin Volga Active 101 / 77 40% 1 02.07.2027 -
Samuel Ayanrinde Kenya Police Active 93 / 98 40% 2 01.07.2027 -
Franco Pérez Boston River Active 115 / 102 40% 1 01.07.2027 -
Maksym Hirnyi Probiy Active 92 / 86 40% 1 30.06.2027 -
Migran Ageyan Ufa Active 91 / 90 40% 2 29.06.2027 -
Adam Taggart Qarabag Active 126 / 122 40% 2 29.06.2027 -
Mohamed Konaté Akhmat Grozny Active 117 / 122 40% 1 28.06.2027 -
Danil Karpov Chernomorets Active 102 / 102 40% 2 27.06.2027 -
Serder Serderov Dinamo Makhachkala Active 106 / 105 40% 1 27.06.2027 -
Alexandr Saplinov Volga Active 97 / 102 40% 1 26.06.2027 -
Kamran Aliev SKA Khabarovsk Active 107 / 99 40% 1 25.06.2027 -
Ezekiel Edidiong Enyimba Active 92 / 95 40% 1 25.06.2027 -
Aleksej Golijanin Sokol Active 84 / 100 40% 1 24.06.2027 -
Josephat Lopaga Kakamega Homeboyz Active 85 / 95 40% 1 24.06.2027 -
Daniel Bachmann Watford Active 126 / 120 40% 2 22.06.2027 -
Vitaly Gudiev Akron Active 104 / 101 40% 1 22.06.2027 -
Marios Siabanis Volos NPS Active 115 / 113 40% 1 22.06.2027 -
Idriz Batha Sumgayit Rejected 100 / 98 69% 1 21.06.2027 Reject
Joaquín Bigo Gimnasia La Plata Active 112 / 105 40% 1 20.06.2027 -
Stefan Bajić Bristol City Active 117 / 102 40% 1 20.06.2027 -
Kabiru Abdullahi Northampton Town Active 89 / 82 40% 1 18.06.2027 -
Denis Mironov Shinnik Active 101 / 79 40% 1 15.06.2027 -
Omar Popov Dinamo St Petersburg Active 85 / 84 40% 1 15.06.2027 -
Diego Virrueta Neftchi Rejected 95 / 104 69% 1 14.06.2027 Reject
Harvey Saunders Tranmere Rovers Active 74 / 94 40% 1 14.06.2027 -
Bogdan Ovsyannikov Orenburg Active 102 / 104 40% 2 13.06.2027 -
Martin Zlomislić Qarabag Active 117 / 112 40% 1 13.06.2027 -
Daniil Frolkin Fakel Active 105 / 108 40% 1 07.06.2027 -
Kenan Pirić Neftchi Active 112 / 102 40% 1 07.06.2027 -
Mattia Mannini Juve Stabia Active 103 / 118 40% 1 07.06.2027 -
Jacobo Alcalde SKA Khabarovsk Active 81 / 100 40% 1 05.06.2027 -
Juan David Rueda Alianza Petrolera Active 108 / 111 40% 1 05.06.2027 -
Bassala Sambou Neftchi Rejected 99 / 107 69% 1 01.06.2027 Reject
Stanislav Biblyk Chaika Active 82 / 105 40% 1 01.06.2027 -
Agil Bayramov Ravan Active 98 / 100 40% 1 30.01.2027 -
Guima Zira Active 101 / 107 40% 1 29.01.2027 -
Alan Tsaraev Arsenal Tula Active 99 / 89 40% 1 27.01.2027 -
Đorđe Pantelić Spartak Kostroma Active 112 / 96 40% 2 26.01.2027 -
Nikita Yershov Kosmos Rejected 73 / 75 40% 1 25.01.2027 Needs More Info
Afran Khalilzade Ravan Rejected 98 / 100 40% 1 25.01.2027 Needs More Info
Daniil Agureev Amkar Active 84 / 78 40% 1 24.01.2027 -
Daniel Kyerewaa Reading Active 117 / 109 40% 2 23.01.2027 -
Hakeem Odoffin Luton Town Active 120 / 124 40% 1 22.01.2027 -
Kirill Danilin Ural Active 116 / 108 40% 1 20.01.2027 -
Danil Lipovoy Ufa Active 87 / 91 40% 1 19.01.2027 -
Nikolay Rybikov Dinamo St Petersburg Active 95 / 78 40% 1 19.01.2027 -
Alexey Kuznetsov Leningradets Active 89 / 111 40% 1 19.01.2027 -
Roi Kehat Sumgayit Rejected 104 / 102 69% 1 18.01.2027 Reject
Marius Adamonis Neftchi Active 106 / 119 40% 1 18.01.2027 -
Georgy Natabashvili Chernomorets Active 81 / 74 40% 1 18.01.2027 -
Thomas Sang Shrewsbury Town Active 100 / 97 40% 1 15.01.2027 -
Kyle Jurgens Maritzburg United Active 104 / 118 40% 1 15.01.2027 -
Alexandr Nadolskiy Yenisey Active 82 / 103 40% 1 14.01.2027 -
Bojan Roganović Torpedo Moscow Active 96 / 116 40% 1 13.01.2027 -
Daniil Gurchenko Spartak Tambov Active 100 / 90 40% 1 13.01.2027 -
Nikolay Giorgobiani Fakel Active 102 / 102 40% 1 11.01.2027 -
Gonzalo Groba Akron Active 95 / 100 40% 1 11.01.2027 -
Jerónimo Gutiérrez Independiente Rivadavia Active 77 / 95 40% 1 18.08.2026 -
Nahuel González Alvarado Active 80 / 86 40% 1 17.08.2026 -
Jherson Mosquera Newell's Old Boys Active 134 / 134 40% 1 01.08.2026 -
Yair Arismendi Sarmiento Active 126 / 119 40% 1 01.08.2026 -
Luciano Perdomo Chacarita Juniors Active 103 / 122 40% 1 01.08.2026 -